sensor_id;sensor_type;location;lat;lon;timestamp;temperature;humidity
39103;DHT22;24847;48.218;16.414;2024-02-26T00:00:57;7.70;73.40
39103;DHT22;24847;48.218;16.414;2024-02-26T00:06:00;7.40;74.10
39103;DHT22;24847;48.218;16.414;2024-02-26T00:11:03;7.20;75.00
39103;DHT22;24847;48.218;16.414;2024-02-26T00:16:06;7.20;74.60
39103;DHT22;24847;48.218;16.414;2024-02-26T00:21:08;7.20;75.40
39103;DHT22;24847;48.218;16.414;2024-02-26T00:26:12;7.10;75.60
39103;DHT22;24847;48.218;16.414;2024-02-26T00:31:16;7.10;75.50
39103;DHT22;24847;48.218;16.414;2024-02-26T00:36:18;7.00;75.60
39103;DHT22;24847;48.218;16.414;2024-02-26T00:41:21;7.10;75.90
39103;DHT22;24847;48.218;16.414;2024-02-26T00:46:24;7.10;76.30
39103;DHT22;24847;48.218;16.414;2024-02-26T00:51:26;7.10;76.20
39103;DHT22;24847;48.218;16.414;2024-02-26T00:56:29;6.90;77.30
39103;DHT22;24847;48.218;16.414;2024-02-26T01:01:32;6.90;77.80
39103;DHT22;24847;48.218;16.414;2024-02-26T01:06:34;6.90;78.40
39103;DHT22;24847;48.218;16.414;2024-02-26T01:11:38;6.90;78.60
39103;DHT22;24847;48.218;16.414;2024-02-26T01:16:40;6.90;78.50
39103;DHT22;24847;48.218;16.414;2024-02-26T01:21:42;6.60;81.00
39103;DHT22;24847;48.218;16.414;2024-02-26T01:26:46;6.50;82.70
39103;DHT22;24847;48.218;16.414;2024-02-26T01:31:48;6.30;83.60
39103;DHT22;24847;48.218;16.414;2024-02-26T01:36:50;6.20;84.40
39103;DHT22;24847;48.218;16.414;2024-02-26T01:41:53;6.20;83.60
39103;DHT22;24847;48.218;16.414;2024-02-26T01:46:56;6.20;83.70
39103;DHT22;24847;48.218;16.414;2024-02-26T01:51:58;6.20;83.60
39103;DHT22;24847;48.218;16.414;2024-02-26T01:57:04;6.00;84.50
39103;DHT22;24847;48.218;16.414;2024-02-26T02:02:08;6.10;84.00
39103;DHT22;24847;48.218;16.414;2024-02-26T02:07:12;6.20;83.50
39103;DHT22;24847;48.218;16.414;2024-02-26T02:12:16;6.00;84.60
39103;DHT22;24847;48.218;16.414;2024-02-26T02:17:19;6.00;84.10
39103;DHT22;24847;48.218;16.414;2024-02-26T02:22:22;6.10;83.40
39103;DHT22;24847;48.218;16.414;2024-02-26T02:27:25;5.90;84.20
39103;DHT22;24847;48.218;16.414;2024-02-26T02:32:28;5.90;83.80
39103;DHT22;24847;48.218;16.414;2024-02-26T02:37:32;5.90;83.50
39103;DHT22;24847;48.218;16.414;2024-02-26T02:42:34;6.00;82.40
39103;DHT22;24847;48.218;16.414;2024-02-26T02:47:36;5.90;82.50
39103;DHT22;24847;48.218;16.414;2024-02-26T02:52:40;6.10;81.50
39103;DHT22;24847;48.218;16.414;2024-02-26T02:57:42;6.20;80.30
39103;DHT22;24847;48.218;16.414;2024-02-26T03:02:45;6.10;81.40
39103;DHT22;24847;48.218;16.414;2024-02-26T03:07:49;6.10;80.50
39103;DHT22;24847;48.218;16.414;2024-02-26T03:12:51;5.90;80.60
39103;DHT22;24847;48.218;16.414;2024-02-26T03:17:53;5.80;81.10
39103;DHT22;24847;48.218;16.414;2024-02-26T03:22:57;5.80;81.00
39103;DHT22;24847;48.218;16.414;2024-02-26T03:27:59;5.90;80.90
39103;DHT22;24847;48.218;16.414;2024-02-26T03:33:01;6.00;80.40
39103;DHT22;24847;48.218;16.414;2024-02-26T03:38:05;6.00;81.00
39103;DHT22;24847;48.218;16.414;2024-02-26T03:43:07;6.10;80.20
39103;DHT22;24847;48.218;16.414;2024-02-26T03:48:10;6.10;80.10
39103;DHT22;24847;48.218;16.414;2024-02-26T03:53:13;6.10;80.20
39103;DHT22;24847;48.218;16.414;2024-02-26T03:58:15;6.00;80.50
39103;DHT22;24847;48.218;16.414;2024-02-26T04:03:17;6.20;80.10
39103;DHT22;24847;48.218;16.414;2024-02-26T04:08:21;6.20;80.00
39103;DHT22;24847;48.218;16.414;2024-02-26T04:13:23;6.30;79.50
39103;DHT22;24847;48.218;16.414;2024-02-26T04:18:25;6.30;80.70
39103;DHT22;24847;48.218;16.414;2024-02-26T04:23:29;6.20;80.80
39103;DHT22;24847;48.218;16.414;2024-02-26T04:28:31;6.20;80.50
39103;DHT22;24847;48.218;16.414;2024-02-26T04:33:34;6.00;81.50
39103;DHT22;24847;48.218;16.414;2024-02-26T04:38:37;6.10;81.40
39103;DHT22;24847;48.218;16.414;2024-02-26T04:43:40;6.10;81.60
39103;DHT22;24847;48.218;16.414;2024-02-26T04:48:43;6.00;82.30
39103;DHT22;24847;48.218;16.414;2024-02-26T04:53:48;6.00;82.30
39103;DHT22;24847;48.218;16.414;2024-02-26T04:58:51;6.00;82.80
39103;DHT22;24847;48.218;16.414;2024-02-26T05:03:53;6.00;82.50
39103;DHT22;24847;48.218;16.414;2024-02-26T05:08:56;6.00;83.10
39103;DHT22;24847;48.218;16.414;2024-02-26T05:13:58;5.90;83.60
39103;DHT22;24847;48.218;16.414;2024-02-26T05:19:01;5.80;84.30
39103;DHT22;24847;48.218;16.414;2024-02-26T05:24:06;5.80;84.20
39103;DHT22;24847;48.218;16.414;2024-02-26T05:29:08;5.80;84.60
39103;DHT22;24847;48.218;16.414;2024-02-26T05:34:10;5.80;83.60
39103;DHT22;24847;48.218;16.414;2024-02-26T05:39:14;5.80;84.10
39103;DHT22;24847;48.218;16.414;2024-02-26T05:44:16;5.70;83.70
39103;DHT22;24847;48.218;16.414;2024-02-26T05:49:18;5.80;84.20
39103;DHT22;24847;48.218;16.414;2024-02-26T05:54:23;5.90;82.80
39103;DHT22;24847;48.218;16.414;2024-02-26T05:59:25;5.80;82.80
39103;DHT22;24847;48.218;16.414;2024-02-26T06:04:27;5.80;82.80
39103;DHT22;24847;48.218;16.414;2024-02-26T06:09:31;5.80;82.80
39103;DHT22;24847;48.218;16.414;2024-02-26T06:14:33;5.80;82.60
39103;DHT22;24847;48.218;16.414;2024-02-26T06:19:36;5.70;82.80
39103;DHT22;24847;48.218;16.414;2024-02-26T06:24:40;5.70;82.50
39103;DHT22;24847;48.218;16.414;2024-02-26T06:29:42;5.70;82.70
39103;DHT22;24847;48.218;16.414;2024-02-26T06:34:44;5.80;82.40
39103;DHT22;24847;48.218;16.414;2024-02-26T06:39:48;5.80;82.40
39103;DHT22;24847;48.218;16.414;2024-02-26T06:44:50;5.90;81.90
39103;DHT22;24847;48.218;16.414;2024-02-26T06:49:52;6.00;81.70
39103;DHT22;24847;48.218;16.414;2024-02-26T06:54:57;6.10;82.00
39103;DHT22;24847;48.218;16.414;2024-02-26T06:59:59;6.10;82.40
39103;DHT22;24847;48.218;16.414;2024-02-26T07:05:01;6.20;82.30
39103;DHT22;24847;48.218;16.414;2024-02-26T07:10:06;6.10;83.90
39103;DHT22;24847;48.218;16.414;2024-02-26T07:15:09;6.10;84.30
39103;DHT22;24847;48.218;16.414;2024-02-26T07:20:12;6.30;82.70
39103;DHT22;24847;48.218;16.414;2024-02-26T07:25:16;6.50;81.70
39103;DHT22;24847;48.218;16.414;2024-02-26T07:30:18;6.50;81.30
39103;DHT22;24847;48.218;16.414;2024-02-26T07:35:20;6.70;80.90
39103;DHT22;24847;48.218;16.414;2024-02-26T07:40:24;6.80;80.90
39103;DHT22;24847;48.218;16.414;2024-02-26T07:45:26;6.80;82.00
39103;DHT22;24847;48.218;16.414;2024-02-26T07:50:28;6.80;82.30
39103;DHT22;24847;48.218;16.414;2024-02-26T07:55:32;6.90;81.80
39103;DHT22;24847;48.218;16.414;2024-02-26T08:00:34;7.00;81.70
39103;DHT22;24847;48.218;16.414;2024-02-26T08:05:36;7.00;81.70
39103;DHT22;24847;48.218;16.414;2024-02-26T08:10:42;7.10;81.50
39103;DHT22;24847;48.218;16.414;2024-02-26T08:15:44;7.20;81.20
39103;DHT22;24847;48.218;16.414;2024-02-26T08:20:46;7.00;82.20
39103;DHT22;24847;48.218;16.414;2024-02-26T08:25:50;7.20;81.20
39103;DHT22;24847;48.218;16.414;2024-02-26T08:30:52;7.50;80.60
39103;DHT22;24847;48.218;16.414;2024-02-26T08:35:55;7.60;80.40
39103;DHT22;24847;48.218;16.414;2024-02-26T08:40:58;7.80;79.40
39103;DHT22;24847;48.218;16.414;2024-02-26T08:46:00;7.90;78.80
39103;DHT22;24847;48.218;16.414;2024-02-26T08:51:05;8.00;78.20
39103;DHT22;24847;48.218;16.414;2024-02-26T08:56:09;8.10;78.10
39103;DHT22;24847;48.218;16.414;2024-02-26T09:01:17;8.30;76.70
39103;DHT22;24847;48.218;16.414;2024-02-26T09:06:19;8.40;75.90
39103;DHT22;24847;48.218;16.414;2024-02-26T09:11:23;8.50;74.80
39103;DHT22;24847;48.218;16.414;2024-02-26T09:16:25;8.70;74.30
39103;DHT22;24847;48.218;16.414;2024-02-26T09:21:27;8.90;74.80
39103;DHT22;24847;48.218;16.414;2024-02-26T09:26:30;9.40;71.90
39103;DHT22;24847;48.218;16.414;2024-02-26T09:31:32;10.90;67.70
39103;DHT22;24847;48.218;16.414;2024-02-26T09:36:35;12.10;62.10
39103;DHT22;24847;48.218;16.414;2024-02-26T09:41:39;12.40;60.10
39103;DHT22;24847;48.218;16.414;2024-02-26T09:46:41;13.00;58.30
39103;DHT22;24847;48.218;16.414;2024-02-26T09:51:44;13.30;57.90
39103;DHT22;24847;48.218;16.414;2024-02-26T09:56:50;13.50;56.70
39103;DHT22;24847;48.218;16.414;2024-02-26T10:01:53;13.90;55.70
39103;DHT22;24847;48.218;16.414;2024-02-26T10:06:56;13.80;55.00
39103;DHT22;24847;48.218;16.414;2024-02-26T10:12:02;13.30;55.90
39103;DHT22;24847;48.218;16.414;2024-02-26T10:17:07;13.00;56.30
39103;DHT22;24847;48.218;16.414;2024-02-26T10:22:10;13.50;56.50
39103;DHT22;24847;48.218;16.414;2024-02-26T10:27:15;13.50;54.70
39103;DHT22;24847;48.218;16.414;2024-02-26T10:32:17;14.20;52.30
39103;DHT22;24847;48.218;16.414;2024-02-26T10:37:20;13.60;53.80
39103;DHT22;24847;48.218;16.414;2024-02-26T10:42:25;13.40;52.80
39103;DHT22;24847;48.218;16.414;2024-02-26T10:47:28;13.50;53.50
39103;DHT22;24847;48.218;16.414;2024-02-26T10:52:32;13.40;54.30
39103;DHT22;24847;48.218;16.414;2024-02-26T10:57:39;13.50;53.50
39103;DHT22;24847;48.218;16.414;2024-02-26T11:02:45;13.40;53.70
39103;DHT22;24847;48.218;16.414;2024-02-26T11:07:49;13.00;53.90
39103;DHT22;24847;48.218;16.414;2024-02-26T11:12:54;13.10;54.50
39103;DHT22;24847;48.218;16.414;2024-02-26T11:17:58;13.00;54.40
39103;DHT22;24847;48.218;16.414;2024-02-26T11:23:00;13.10;54.50
39103;DHT22;24847;48.218;16.414;2024-02-26T11:28:06;13.10;54.20
39103;DHT22;24847;48.218;16.414;2024-02-26T11:33:11;13.50;53.70
39103;DHT22;24847;48.218;16.414;2024-02-26T11:38:19;13.80;53.50
39103;DHT22;24847;48.218;16.414;2024-02-26T11:43:58;13.60;52.60
39103;DHT22;24847;48.218;16.414;2024-02-26T11:49:02;13.60;52.30
39103;DHT22;24847;48.218;16.414;2024-02-26T11:54:05;13.50;52.40
39103;DHT22;24847;48.218;16.414;2024-02-26T11:59:11;13.10;51.20
39103;DHT22;24847;48.218;16.414;2024-02-26T12:04:16;13.00;50.80
39103;DHT22;24847;48.218;16.414;2024-02-26T12:09:36;13.00;51.00
39103;DHT22;24847;48.218;16.414;2024-02-26T12:14:50;12.80;51.90
39103;DHT22;24847;48.218;16.414;2024-02-26T12:19:53;13.00;51.60
39103;DHT22;24847;48.218;16.414;2024-02-26T12:24:59;12.90;51.70
39103;DHT22;24847;48.218;16.414;2024-02-26T12:30:06;12.80;51.60
39103;DHT22;24847;48.218;16.414;2024-02-26T12:35:09;13.00;49.60
39103;DHT22;24847;48.218;16.414;2024-02-26T12:40:11;13.10;50.70
39103;DHT22;24847;48.218;16.414;2024-02-26T12:45:15;13.00;48.30
39103;DHT22;24847;48.218;16.414;2024-02-26T12:50:17;12.70;47.80
39103;DHT22;24847;48.218;16.414;2024-02-26T12:55:20;12.70;48.70
39103;DHT22;24847;48.218;16.414;2024-02-26T13:00:26;13.00;47.90
39103;DHT22;24847;48.218;16.414;2024-02-26T13:05:29;13.30;47.50
39103;DHT22;24847;48.218;16.414;2024-02-26T13:10:31;13.30;47.50
39103;DHT22;24847;48.218;16.414;2024-02-26T13:15:36;13.00;47.80
39103;DHT22;24847;48.218;16.414;2024-02-26T13:20:38;12.70;47.80
39103;DHT22;24847;48.218;16.414;2024-02-26T13:25:41;12.60;48.60
39103;DHT22;24847;48.218;16.414;2024-02-26T13:30:51;12.90;48.40
39103;DHT22;24847;48.218;16.414;2024-02-26T13:35:54;12.80;48.60
39103;DHT22;24847;48.218;16.414;2024-02-26T13:40:57;12.70;48.60
39103;DHT22;24847;48.218;16.414;2024-02-26T13:46:00;12.60;48.70
39103;DHT22;24847;48.218;16.414;2024-02-26T13:51:03;12.70;48.60
39103;DHT22;24847;48.218;16.414;2024-02-26T13:56:06;12.80;48.90
39103;DHT22;24847;48.218;16.414;2024-02-26T14:01:10;12.80;48.90
39103;DHT22;24847;48.218;16.414;2024-02-26T14:06:12;12.60;48.70
39103;DHT22;24847;48.218;16.414;2024-02-26T14:11:15;12.50;48.60
39103;DHT22;24847;48.218;16.414;2024-02-26T14:16:18;12.60;49.10
39103;DHT22;24847;48.218;16.414;2024-02-26T14:21:21;12.60;49.50
39103;DHT22;24847;48.218;16.414;2024-02-26T14:26:23;12.80;49.80
39103;DHT22;24847;48.218;16.414;2024-02-26T14:31:26;13.00;49.80
39103;DHT22;24847;48.218;16.414;2024-02-26T14:36:29;12.80;49.70
39103;DHT22;24847;48.218;16.414;2024-02-26T14:41:31;13.00;49.60
39103;DHT22;24847;48.218;16.414;2024-02-26T14:46:36;12.80;49.40
39103;DHT22;24847;48.218;16.414;2024-02-26T14:51:38;12.70;49.30
39103;DHT22;24847;48.218;16.414;2024-02-26T14:56:41;12.70;49.30
39103;DHT22;24847;48.218;16.414;2024-02-26T15:01:44;12.70;49.90
39103;DHT22;24847;48.218;16.414;2024-02-26T15:06:46;12.50;50.10
39103;DHT22;24847;48.218;16.414;2024-02-26T15:11:49;12.50;50.70
39103;DHT22;24847;48.218;16.414;2024-02-26T15:16:52;12.30;51.30
39103;DHT22;24847;48.218;16.414;2024-02-26T15:21:54;12.20;51.50
39103;DHT22;24847;48.218;16.414;2024-02-26T15:26:57;12.10;51.70
39103;DHT22;24847;48.218;16.414;2024-02-26T15:32:00;12.10;51.70
39103;DHT22;24847;48.218;16.414;2024-02-26T15:37:03;12.00;52.10
39103;DHT22;24847;48.218;16.414;2024-02-26T15:42:06;12.00;52.40
39103;DHT22;24847;48.218;16.414;2024-02-26T15:47:09;11.90;52.20
39103;DHT22;24847;48.218;16.414;2024-02-26T15:52:11;12.00;52.30
39103;DHT22;24847;48.218;16.414;2024-02-26T15:57:14;12.00;52.30
39103;DHT22;24847;48.218;16.414;2024-02-26T16:02:19;11.90;52.30
39103;DHT22;24847;48.218;16.414;2024-02-26T16:07:27;11.80;52.40
39103;DHT22;24847;48.218;16.414;2024-02-26T16:12:37;11.80;52.80
39103;DHT22;24847;48.218;16.414;2024-02-26T16:17:43;11.70;53.40
39103;DHT22;24847;48.218;16.414;2024-02-26T16:22:48;11.70;53.30
39103;DHT22;24847;48.218;16.414;2024-02-26T16:27:50;11.70;54.10
39103;DHT22;24847;48.218;16.414;2024-02-26T16:32:54;11.70;54.10
39103;DHT22;24847;48.218;16.414;2024-02-26T16:37:56;11.60;53.90
39103;DHT22;24847;48.218;16.414;2024-02-26T16:42:58;11.50;54.10
39103;DHT22;24847;48.218;16.414;2024-02-26T16:48:02;11.50;54.10
39103;DHT22;24847;48.218;16.414;2024-02-26T16:53:06;11.60;54.60
39103;DHT22;24847;48.218;16.414;2024-02-26T16:58:08;11.60;54.70
39103;DHT22;24847;48.218;16.414;2024-02-26T17:03:12;11.50;55.00
39103;DHT22;24847;48.218;16.414;2024-02-26T17:08:16;11.60;54.80
39103;DHT22;24847;48.218;16.414;2024-02-26T17:13:18;11.50;54.80
39103;DHT22;24847;48.218;16.414;2024-02-26T17:18:24;11.30;55.30
39103;DHT22;24847;48.218;16.414;2024-02-26T17:23:26;11.40;55.10
39103;DHT22;24847;48.218;16.414;2024-02-26T17:28:33;11.50;54.80
39103;DHT22;24847;48.218;16.414;2024-02-26T17:33:37;11.40;55.10
39103;DHT22;24847;48.218;16.414;2024-02-26T17:38:40;11.50;54.60
39103;DHT22;24847;48.218;16.414;2024-02-26T17:43:42;11.40;54.70
39103;DHT22;24847;48.218;16.414;2024-02-26T17:48:45;11.50;54.90
39103;DHT22;24847;48.218;16.414;2024-02-26T17:53:47;11.40;54.90
39103;DHT22;24847;48.218;16.414;2024-02-26T17:58:50;11.40;54.80
39103;DHT22;24847;48.218;16.414;2024-02-26T18:03:54;11.50;54.70
39103;DHT22;24847;48.218;16.414;2024-02-26T18:08:57;11.30;54.90
39103;DHT22;24847;48.218;16.414;2024-02-26T18:14:00;11.40;55.10
39103;DHT22;24847;48.218;16.414;2024-02-26T18:19:04;11.30;54.80
39103;DHT22;24847;48.218;16.414;2024-02-26T18:24:07;11.10;55.30
39103;DHT22;24847;48.218;16.414;2024-02-26T18:29:11;11.10;55.80
39103;DHT22;24847;48.218;16.414;2024-02-26T18:34:16;11.00;55.70
39103;DHT22;24847;48.218;16.414;2024-02-26T18:39:19;11.00;56.20
39103;DHT22;24847;48.218;16.414;2024-02-26T18:44:24;11.00;56.10
39103;DHT22;24847;48.218;16.414;2024-02-26T18:49:30;10.90;56.40
39103;DHT22;24847;48.218;16.414;2024-02-26T18:54:37;10.90;56.30
39103;DHT22;24847;48.218;16.414;2024-02-26T18:59:42;10.80;56.70
39103;DHT22;24847;48.218;16.414;2024-02-26T19:04:49;10.70;57.20
39103;DHT22;24847;48.218;16.414;2024-02-26T19:09:53;10.70;57.40
39103;DHT22;24847;48.218;16.414;2024-02-26T19:14:58;10.70;57.10
39103;DHT22;24847;48.218;16.414;2024-02-26T19:20:05;10.70;57.30
39103;DHT22;24847;48.218;16.414;2024-02-26T19:25:12;10.60;57.60
39103;DHT22;24847;48.218;16.414;2024-02-26T19:30:18;10.60;58.20
39103;DHT22;24847;48.218;16.414;2024-02-26T19:35:24;10.50;57.20
39103;DHT22;24847;48.218;16.414;2024-02-26T19:40:29;10.50;57.40
39103;DHT22;24847;48.218;16.414;2024-02-26T19:45:34;10.40;58.30
39103;DHT22;24847;48.218;16.414;2024-02-26T19:50:42;10.40;57.70
39103;DHT22;24847;48.218;16.414;2024-02-26T19:56:01;10.40;57.70
39103;DHT22;24847;48.218;16.414;2024-02-26T20:01:08;10.40;57.30
39103;DHT22;24847;48.218;16.414;2024-02-26T20:06:19;10.50;57.20
39103;DHT22;24847;48.218;16.414;2024-02-26T20:11:26;10.50;57.10
39103;DHT22;24847;48.218;16.414;2024-02-26T20:16:32;10.50;57.20
39103;DHT22;24847;48.218;16.414;2024-02-26T20:21:39;10.30;57.20
39103;DHT22;24847;48.218;16.414;2024-02-26T20:26:46;10.40;57.40
39103;DHT22;24847;48.218;16.414;2024-02-26T20:31:51;10.20;57.40
39103;DHT22;24847;48.218;16.414;2024-02-26T20:36:57;10.20;57.50
39103;DHT22;24847;48.218;16.414;2024-02-26T20:42:02;10.30;57.20
39103;DHT22;24847;48.218;16.414;2024-02-26T20:47:07;10.20;57.20
39103;DHT22;24847;48.218;16.414;2024-02-26T20:52:15;10.00;57.60
39103;DHT22;24847;48.218;16.414;2024-02-26T20:57:19;10.10;57.60
39103;DHT22;24847;48.218;16.414;2024-02-26T21:02:23;10.00;57.90
39103;DHT22;24847;48.218;16.414;2024-02-26T21:07:29;9.90;58.20
39103;DHT22;24847;48.218;16.414;2024-02-26T21:12:33;10.10;58.10
39103;DHT22;24847;48.218;16.414;2024-02-26T21:17:35;10.20;58.60
39103;DHT22;24847;48.218;16.414;2024-02-26T21:22:39;9.90;58.10
39103;DHT22;24847;48.218;16.414;2024-02-26T21:27:44;10.00;58.30
39103;DHT22;24847;48.218;16.414;2024-02-26T21:32:46;9.90;58.30
39103;DHT22;24847;48.218;16.414;2024-02-26T21:37:50;10.10;58.10
39103;DHT22;24847;48.218;16.414;2024-02-26T21:42:52;10.00;58.00
39103;DHT22;24847;48.218;16.414;2024-02-26T21:47:54;10.10;57.90
39103;DHT22;24847;48.218;16.414;2024-02-26T21:52:58;10.00;57.90
39103;DHT22;24847;48.218;16.414;2024-02-26T21:58:00;10.00;58.20
39103;DHT22;24847;48.218;16.414;2024-02-26T22:03:03;10.10;57.90
39103;DHT22;24847;48.218;16.414;2024-02-26T22:08:07;9.90;58.40
39103;DHT22;24847;48.218;16.414;2024-02-26T22:13:09;9.90;58.70
39103;DHT22;24847;48.218;16.414;2024-02-26T22:18:12;9.90;58.50
39103;DHT22;24847;48.218;16.414;2024-02-26T22:23:15;9.90;58.40
39103;DHT22;24847;48.218;16.414;2024-02-26T22:28:17;9.90;58.70
39103;DHT22;24847;48.218;16.414;2024-02-26T22:33:20;9.70;58.90
39103;DHT22;24847;48.218;16.414;2024-02-26T22:38:23;9.70;59.10
39103;DHT22;24847;48.218;16.414;2024-02-26T22:43:26;9.70;59.20
39103;DHT22;24847;48.218;16.414;2024-02-26T22:48:28;9.60;59.20
39103;DHT22;24847;48.218;16.414;2024-02-26T22:53:32;9.70;59.00
39103;DHT22;24847;48.218;16.414;2024-02-26T22:58:34;9.70;59.10
39103;DHT22;24847;48.218;16.414;2024-02-26T23:03:37;9.60;58.90
39103;DHT22;24847;48.218;16.414;2024-02-26T23:08:40;9.80;58.70
39103;DHT22;24847;48.218;16.414;2024-02-26T23:13:42;9.70;58.90
39103;DHT22;24847;48.218;16.414;2024-02-26T23:18:46;9.60;58.90
39103;DHT22;24847;48.218;16.414;2024-02-26T23:23:50;9.60;58.70
39103;DHT22;24847;48.218;16.414;2024-02-26T23:28:52;9.50;59.00
39103;DHT22;24847;48.218;16.414;2024-02-26T23:33:54;9.40;58.90
39103;DHT22;24847;48.218;16.414;2024-02-26T23:38:59;9.40;59.20
39103;DHT22;24847;48.218;16.414;2024-02-26T23:44:02;9.50;59.10
39103;DHT22;24847;48.218;16.414;2024-02-26T23:49:05;9.40;59.00
39103;DHT22;24847;48.218;16.414;2024-02-26T23:54:09;9.10;59.80
39103;DHT22;24847;48.218;16.414;2024-02-26T23:59:11;9.20;59.60
